KIBM

Details ICAO KIBM
Name KIMBALL MUNI ROBERT E ARRAJ FLD
Region United States
Timezone America/Denver (UTC-6.0)
Plans Departing 3
Arriving 1
Stats Elevation 4,926 ft / 1,501 m (AMSL)
Location 41.188059° -103.677311°
Runways 1
Magnetic Variation 7.571° E
Sunrise 2018-05-20 11:33:18 UTC / 2018-05-20 05:33:18 Local
Sunset 2018-05-21 02:12:03 UTC / 2018-05-20 20:12:03 Local
Advertisement - Login to hide

Runways

ID Width Length Bearing (true) Bearing (mag) Surface Threshold Offset Overrun Length
10 75 ft / 23 m 6,194 ft / 1,888 m 104.79° 97.22° Concrete 0 ft / 0 m 0 ft / 0 m
28 75 ft / 23 m 6,194 ft / 1,888 m 284.81° 277.24° Concrete 0 ft / 0 m 0 ft / 0 m

Map

Weather


0- 5 10 15 20 25 30 35+ Temperature / ° C

Clouds and Precipitation
Forecast for 2018-05-20 12:00 UTC. Updated 3 hours ago

Ground ~20,000 ft ~40,000 ft Winds

METAR

KIBM 201355Z AUTO 00000KT 10SM SCT030 OVC041 06/03 A3028 RMK AO2 T00580034

TAF

Not found

Frequencies

Recorded 118.07 MHz AWOS 3
Unicom 122.80 MHz CTAF/UNICOM
Warning: Do not use this data for real-world aviation or navigation. No guarantee of current accuracy is given.